Denver, Colorado
Traffic Map
Current Weather Conditions
Denver, Colorado
Scattered Clouds
Scattered Clouds
83°
Feels Like: 83°
Wind Chill: 83° Ceiling: Unl
Heat Index: 83° Visibility: 10mi
Dew Point: 45° Wind: 10mph
Humidity: 26% Direction: 180° (S)
Pressure: 30.21in Gusts: 0mph
Raw Report DataKBKF 241558Z 18009KT 10SM FEW090 SCT140 SCT220 29/07 A3021 RMK AO2A SLP144 T02860073
Traffic Incident Summary
Active as of:
Severity:
Category:
InformationThere was an issue retrieving the traffic information for this location. Please try a different location or try again shortly.
Advertisements
Track Severe Weather on mobile